Time;durP1;ratioP1;P1;durP2;ratioP2;P2;SDS_P1;SDS_P2;PMS_P1;PMS_P2;Temp;Humidity;BMP_temperature;BMP_pressure;BME280_temperature;BME280_humidity;BME280_pressure;Samples;Min_cycle;Max_cycle;Signal;HPM_P1;HPM_P2
2021/08/30 00:00:40;;;;;;;14.77;10.35;;;;;;;19.01;69.11;100130.59;5983100;23;20021;-90
2021/08/30 00:03:06;;;;;;;13.93;10.00;;;;;;;19.03;69.44;100133.13;5957749;24;20025;-89
2021/08/30 00:05:33;;;;;;;15.75;11.15;;;;;;;19.00;69.26;100128.06;5982824;24;20060;-88
2021/08/30 00:08:00;;;;;;;14.23;11.00;;;;;;;19.01;69.24;100127.94;5983176;24;20028;-89
2021/08/30 00:10:27;;;;;;;13.05;10.85;;;;;;;19.00;69.13;100125.38;5958158;24;20024;-90
2021/08/30 00:12:53;;;;;;;13.55;11.10;;;;;;;18.98;69.01;100125.53;5957995;24;20389;-89
2021/08/30 00:15:20;;;;;;;15.75;10.25;;;;;;;18.97;69.42;100129.16;5958209;24;20032;-89
2021/08/30 00:17:47;;;;;;;12.93;10.88;;;;;;;18.98;69.33;100130.00;5958177;24;20334;-88
2021/08/30 00:20:16;;;;;;;13.27;11.05;;;;;;;18.96;69.65;100132.81;5958123;24;20028;-89
2021/08/30 00:22:44;;;;;;;15.98;11.18;;;;;;;18.97;69.37;100136.31;5982268;24;20024;-90
2021/08/30 00:25:11;;;;;;;16.35;11.00;;;;;;;18.97;69.24;100125.66;5957640;24;20028;-89
2021/08/30 00:27:39;;;;;;;14.05;11.13;;;;;;;18.97;69.36;100125.66;5958248;24;20024;-90
2021/08/30 00:30:07;;;;;;;14.65;11.43;;;;;;;18.96;69.23;100119.50;5982518;24;20024;-89
2021/08/30 00:32:34;;;;;;;16.50;10.68;;;;;;;18.97;69.34;100128.31;5957538;24;20017;-89
2021/08/30 00:35:01;;;;;;;15.10;10.77;;;;;;;18.97;69.07;100122.97;5957965;24;20032;-90
2021/08/30 00:37:29;;;;;;;17.48;10.30;;;;;;;18.97;69.19;100122.97;5981838;23;20036;-91
2021/08/30 00:39:55;;;;;;;17.35;10.93;;;;;;;18.97;69.09;100125.66;5957843;24;20028;-89
2021/08/30 00:42:22;;;;;;;13.23;10.77;;;;;;;18.96;69.30;100123.97;5958075;24;20353;-90
2021/08/30 00:44:48;;;;;;;14.18;10.73;;;;;;;18.96;69.36;100126.63;5983893;24;20334;-90
2021/08/30 00:47:15;;;;;;;12.32;10.68;;;;;;;18.95;69.30;100124.94;5983790;24;20465;-90
2021/08/30 00:49:42;;;;;;;13.57;10.55;;;;;;;18.94;69.15;100128.56;5958738;23;20025;-89
2021/08/30 00:52:11;;;;;;;14.75;11.18;;;;;;;18.93;69.05;100135.75;5982798;24;20678;-88
2021/08/30 00:54:38;;;;;;;17.45;11.15;;;;;;;18.93;68.99;100135.75;5959060;24;20080;-89
2021/08/30 00:57:05;;;;;;;16.00;11.27;;;;;;;18.92;69.16;100134.06;5983855;24;20035;-90
2021/08/30 00:59:34;;;;;;;17.67;11.77;;;;;;;18.91;69.01;100129.69;5983358;24;20088;-89
2021/08/30 01:02:02;;;;;;;15.43;11.80;;;;;;;18.89;69.19;100131.66;5959580;24;20119;-89
2021/08/30 01:04:36;;;;;;;13.38;11.25;;;;;;;18.88;69.40;100129.97;5960135;24;20038;-89
2021/08/30 01:07:31;;;;;;;13.40;11.07;;;;;;;18.84;69.62;100129.38;5983925;24;20032;-89
2021/08/30 01:10:04;;;;;;;15.00;11.00;;;;;;;18.86;69.45;100130.09;5977198;24;20028;-89
2021/08/30 01:12:38;;;;;;;12.50;11.10;;;;;;;18.86;69.11;100129.25;5982255;24;20491;-89
2021/08/30 01:15:10;;;;;;;19.25;10.88;;;;;;;18.85;69.35;100136.41;5959077;24;20043;-89
2021/08/30 01:17:38;;;;;;;12.98;11.00;;;;;;;18.86;69.08;100135.44;5982388;24;20035;-89
2021/08/30 01:20:25;;;;;;;14.38;11.02;;;;;;;18.81;69.37;100144.81;5984117;23;20076;-89
2021/08/30 01:22:56;;;;;;;13.40;11.30;;;;;;;18.84;69.20;100136.53;5959466;24;20020;-90
2021/08/30 01:25:26;;;;;;;14.52;11.20;;;;;;;18.83;68.98;100138.34;5959015;24;20046;-90
2021/08/30 01:27:56;;;;;;;17.27;10.90;;;;;;;18.83;69.35;100141.03;5981793;23;20024;-90
2021/08/30 01:30:25;;;;;;;14.50;11.52;;;;;;;18.81;69.40;100140.31;5958787;24;20028;-89
2021/08/30 01:32:56;;;;;;;15.68;11.45;;;;;;;18.81;69.03;100140.31;5983157;24;20016;-90
2021/08/30 01:35:25;;;;;;;17.25;11.55;;;;;;;18.81;69.28;100137.66;5983418;24;20361;-90
2021/08/30 01:37:59;;;;;;;14.15;11.02;;;;;;;18.78;69.34;100143.25;5958463;24;20063;-90
2021/08/30 01:40:28;;;;;;;13.63;11.20;;;;;;;18.78;69.19;100137.91;5959475;24;20031;-90
2021/08/30 01:43:00;;;;;;;17.30;12.07;;;;;;;18.78;69.06;100140.59;5959151;24;20031;-88
2021/08/30 01:45:39;;;;;;;21.05;12.43;;;;;;;18.77;69.36;100141.56;5957980;24;20465;-89
2021/08/30 01:48:07;;;;;;;15.70;12.07;;;;;;;18.78;69.29;100137.06;5983600;24;20047;-90
2021/08/30 01:50:38;;;;;;;14.82;11.32;;;;;;;18.78;69.34;100137.06;5982808;23;20481;-90
2021/08/30 01:53:06;;;;;;;17.23;12.68;;;;;;;18.77;69.13;100140.72;5982298;24;20031;-90
2021/08/30 01:55:50;;;;;;;15.50;12.23;;;;;;;18.74;69.49;100137.34;5958248;24;20055;-90
2021/08/30 02:00:53;;;;;;;16.73;12.32;;;;;;;18.75;69.28;100135.50;5982684;24;20028;-89
2021/08/30 02:03:51;;;;;;;15.27;12.02;;;;;;;18.72;69.46;100130.44;5981867;23;20028;-90
2021/08/30 02:06:27;;;;;;;18.10;12.68;;;;;;;18.76;69.20;100139.84;5958822;24;20028;-88
2021/08/30 02:08:56;;;;;;;14.43;11.65;;;;;;;18.75;69.26;100135.50;5957276;24;20024;-91
2021/08/30 02:11:33;;;;;;;14.90;11.70;;;;;;;18.74;69.13;100136.50;5957552;24;20334;-90
2021/08/30 02:14:02;;;;;;;17.13;12.30;;;;;;;18.73;68.95;100137.47;5957209;24;20396;-89
2021/08/30 02:16:40;;;;;;;14.35;11.98;;;;;;;18.72;68.98;100136.63;5959531;24;20028;-90
2021/08/30 02:19:32;;;;;;;16.40;12.38;;;;;;;18.71;69.48;100134.06;5957192;24;20072;-90
2021/08/30 02:22:18;;;;;;;16.67;12.63;;;;;;;18.68;69.55;100132.50;5981868;24;20465;-90
2021/08/30 02:24:54;;;;;;;15.07;12.35;;;;;;;18.70;69.20;100133.25;5957614;24;20409;-89
2021/08/30 02:27:27;;;;;;;16.42;12.02;;;;;;;18.69;69.28;100131.53;5957814;24;20028;-90
2021/08/30 02:30:11;;;;;;;18.95;12.70;;;;;;;18.69;69.38;100125.38;5981800;24;20060;-89
2021/08/30 02:32:42;;;;;;;17.33;12.68;;;;;;;18.70;69.54;100133.25;5957796;24;20103;-91
2021/08/30 02:35:13;;;;;;;15.95;12.88;;;;;;;18.71;69.30;100128.75;5956902;24;20020;-90
2021/08/30 02:37:42;;;;;;;17.35;12.55;;;;;;;18.71;69.40;100126.06;5957348;24;20502;-90
2021/08/30 02:40:12;;;;;;;14.60;11.70;;;;;;;18.71;69.30;100126.94;5981592;23;20030;-90
2021/08/30 02:42:47;;;;;;;14.50;12.13;;;;;;;18.71;69.18;100131.41;5959007;23;20028;-88
2021/08/30 02:45:15;;;;;;;15.10;11.73;;;;;;;18.70;69.22;100138.56;5957609;24;20028;-90
2021/08/30 02:47:44;;;;;;;16.10;11.60;;;;;;;18.70;69.30;100133.25;5957283;24;20553;-90
2021/08/30 02:50:11;;;;;;;16.70;11.80;;;;;;;18.70;69.45;100133.25;5904819;24;1159112;-90
2021/08/30 02:53:06;;;;;;;16.20;12.68;;;;;;;18.67;69.48;100129.97;5951668;24;20029;-90
2021/08/30 02:55:43;;;;;;;16.42;12.65;;;;;;;18.69;69.39;100128.88;5955009;24;20024;-90
2021/08/30 03:01:06;;;;;;;16.65;13.00;;;;;;;18.70;69.61;100129.72;5958553;24;20035;-88
2021/08/30 03:03:45;;;;;;;15.98;12.70;;;;;;;18.68;69.72;100126.31;5953366;24;20025;-88
2021/08/30 03:06:36;;;;;;;14.50;12.20;;;;;;;18.68;69.81;100127.19;5953490;24;20461;-87
2021/08/30 03:09:13;;;;;;;20.35;14.23;;;;;;;18.68;69.71;100126.31;5952989;24;20032;-88
2021/08/30 03:11:52;;;;;;;14.45;11.82;;;;;;;18.69;69.53;100128.88;5953485;24;20036;-88
2021/08/30 03:14:26;;;;;;;15.13;11.82;;;;;;;18.69;69.73;100115.53;5953878;23;20108;-88
2021/08/30 03:17:04;;;;;;;17.15;12.98;;;;;;;18.70;69.69;100117.25;5953193;24;20029;-87
2021/08/30 03:19:32;;;;;;;14.52;11.82;;;;;;;18.72;69.69;100119.75;5952991;24;20350;-87
2021/08/30 03:22:03;;;;;;;14.57;12.02;;;;;;;18.70;69.76;100117.25;5952522;24;20084;-87
2021/08/30 03:24:36;;;;;;;15.80;13.07;;;;;;;18.72;69.83;100115.28;5954535;23;20025;-88
2021/08/30 03:27:10;;;;;;;15.40;12.70;;;;;;;18.69;70.03;100120.88;5953057;24;20024;-88
2021/08/30 03:29:57;;;;;;;17.73;13.20;;;;;;;18.68;70.03;100115.66;5953282;24;20577;-88
2021/08/30 03:33:01;;;;;;;18.10;12.80;;;;;;;18.66;70.16;100115.81;5950789;24;20041;-88
2021/08/30 03:35:59;;;;;;;16.77;12.95;;;;;;;18.66;70.27;100122.97;5973970;23;20032;-89
2021/08/30 03:38:53;;;;;;;17.15;12.77;;;;;;;18.66;70.33;100118.50;5934893;24;20037;-89
2021/08/30 03:41:38;;;;;;;15.15;12.57;;;;;;;18.70;69.70;100121.72;5939383;24;20111;-86
2021/08/30 03:44:09;;;;;;;18.05;12.68;;;;;;;18.68;69.76;100121.84;5953050;24;20025;-88
2021/08/30 03:46:43;;;;;;;15.10;12.93;;;;;;;18.66;70.50;100125.63;5952753;24;20024;-90
2021/08/30 03:49:11;;;;;;;20.05;14.15;;;;;;;18.69;70.25;100122.72;5954849;24;20032;-87
2021/08/30 03:51:40;;;;;;;14.50;12.43;;;;;;;18.68;70.07;100121.84;5979539;24;20080;-88
2021/08/30 03:54:09;;;;;;;15.80;13.40;;;;;;;18.68;70.21;100126.31;5980398;23;20040;-88
2021/08/30 03:56:39;;;;;;;21.00;14.18;;;;;;;18.69;70.38;100120.03;5983281;24;20024;-90
2021/08/30 03:59:11;;;;;;;15.93;13.02;;;;;;;18.68;70.06;100116.53;5983415;24;20032;-88
2021/08/30 04:01:45;;;;;;;15.23;11.90;;;;;;;18.69;70.35;100114.72;5959157;24;20025;-88
2021/08/30 04:07:39;;;;;;;18.73;12.52;;;;;;;18.66;70.61;100112.28;5896873;24;20417;-89
2021/08/30 04:11:09;;;;;;;21.42;13.38;;;;;;;18.66;70.69;100104.31;5915978;23;20473;-88
2021/08/30 04:13:44;;;;;;;16.05;12.60;;;;;;;18.69;70.51;100112.88;5982621;24;20520;-88
2021/08/30 04:16:56;;;;;;;17.77;13.10;;;;;;;18.67;70.68;100116.66;5958228;24;20088;-88
2021/08/30 04:19:35;;;;;;;20.73;13.40;;;;;;;18.70;70.41;100116.41;5959971;24;20103;-89
2021/08/30 04:22:18;;;;;;;17.27;13.40;;;;;;;18.73;70.09;100110.81;5954674;23;20035;-87
2021/08/30 04:25:14;;;;;;;17.75;12.85;;;;;;;18.72;70.33;100122.44;5984532;23;20059;-89
2021/08/30 04:28:02;;;;;;;14.20;11.50;;;;;;;18.72;70.27;100127.75;5978511;23;20496;-89
2021/08/30 04:30:58;;;;;;;15.75;12.73;;;;;;;18.71;70.37;100123.41;5959422;24;20024;-88
2021/08/30 04:33:48;;;;;;;15.57;13.00;;;;;;;18.71;70.51;100132.25;5945696;24;20032;-89
2021/08/30 04:36:35;;;;;;;18.85;13.38;;;;;;;18.75;70.07;100130.16;5959303;24;20047;-89
2021/08/30 04:39:13;;;;;;;19.25;14.25;;;;;;;18.74;70.34;100133.81;5959292;24;20365;-88
2021/08/30 04:42:44;;;;;;;18.02;13.25;;;;;;;18.71;70.50;100142.06;5962949;24;20028;-88
2021/08/30 04:45:33;;;;;;;17.13;13.20;;;;;;;18.74;70.22;100141.81;5962000;24;20017;-89
2021/08/30 04:47:59;;;;;;;16.60;13.82;;;;;;;18.76;70.29;100147.84;5960018;24;20027;-89
2021/08/30 04:51:12;;;;;;;19.30;13.73;;;;;;;18.70;70.72;100148.38;5954856;24;20040;-90
2021/08/30 04:53:39;;;;;;;17.02;12.85;;;;;;;18.75;70.43;100143.50;5954509;24;20020;-90
2021/08/30 04:56:20;;;;;;;17.00;13.73;;;;;;;18.72;70.39;100143.75;5954487;24;20339;-91
2021/08/30 04:59:26;;;;;;;17.25;14.07;;;;;;;18.71;70.72;100144.75;5954962;24;20024;-90
2021/08/30 05:01:58;;;;;;;17.40;14.30;;;;;;;18.74;70.25;100144.47;5954597;24;20407;-90
2021/08/30 05:04:26;;;;;;;17.15;13.88;;;;;;;18.75;70.33;100146.16;5956045;24;20025;-89
2021/08/30 05:06:53;;;;;;;17.02;13.75;;;;;;;18.76;70.04;100150.50;5955904;24;20382;-88
2021/08/30 05:09:20;;;;;;;18.13;15.27;;;;;;;18.74;70.08;100149.81;5957336;24;20028;-91
2021/08/30 05:11:59;;;;;;;17.15;14.00;;;;;;;18.71;70.66;100145.59;5954180;24;20044;-89
2021/08/30 05:17:29;;;;;;;19.10;14.98;;;;;;;18.77;70.03;100152.22;5954256;24;20339;-90
2021/08/30 05:19:57;;;;;;;18.52;14.82;;;;;;;18.77;70.20;100159.38;5954460;24;20025;-90
2021/08/30 05:22:23;;;;;;;17.98;14.40;;;;;;;18.76;70.51;100161.19;5954474;24;20035;-90
2021/08/30 05:24:53;;;;;;;17.88;14.57;;;;;;;18.78;70.31;100167.25;5953814;24;20423;-90
2021/08/30 05:27:20;;;;;;;18.65;15.40;;;;;;;18.77;70.25;100168.22;5955030;24;20493;-91
2021/08/30 05:30:39;;;;;;;18.65;14.98;;;;;;;18.73;70.82;100174.81;5955283;24;20037;-90
2021/08/30 05:37:40;;;;;;;18.70;13.13;;;;;;;18.81;70.29;100176.81;5925778;24;20021;-90
2021/08/30 05:40:09;;;;;;;18.65;14.32;;;;;;;18.81;70.21;100167.00;5946769;24;20486;-89
2021/08/30 05:42:50;;;;;;;19.33;15.27;;;;;;;18.81;70.50;100177.66;5955359;24;20403;-90
2021/08/30 05:45:35;;;;;;;19.38;14.45;;;;;;;18.77;70.56;100178.03;5954708;24;20112;-90
2021/08/30 05:48:13;;;;;;;18.98;15.13;;;;;;;18.78;70.28;100174.38;5955812;24;20401;-90
2021/08/30 05:51:27;;;;;;;19.02;15.60;;;;;;;18.77;70.51;100178.91;5894439;24;20108;-90
2021/08/30 05:53:56;;;;;;;18.63;14.85;;;;;;;18.81;70.33;100185.66;5902013;24;20025;-89
2021/08/30 05:56:23;;;;;;;18.33;15.00;;;;;;;18.83;70.47;100180.16;5903394;24;20033;-90
2021/08/30 05:58:50;;;;;;;19.65;15.23;;;;;;;18.84;70.38;100179.22;5902789;24;20042;-90
2021/08/30 06:01:37;;;;;;;21.75;15.48;;;;;;;18.84;70.66;100177.38;5903189;24;20036;-90
2021/08/30 06:04:08;;;;;;;19.13;15.30;;;;;;;18.88;70.55;100181.47;5903481;24;20021;-89
2021/08/30 06:07:08;;;;;;;18.58;15.35;;;;;;;18.84;71.06;100177.38;5902627;24;20031;-90
2021/08/30 06:10:17;;;;;;;17.52;13.63;;;;;;;18.86;70.68;100175.44;5902559;24;20042;-91
2021/08/30 06:16:09;;;;;;;15.93;14.13;;;;;;;18.94;70.40;100166.78;5925041;24;20029;-88
2021/08/30 06:18:46;;;;;;;23.00;16.15;;;;;;;18.94;70.73;100173.91;5904046;24;20041;-90
2021/08/30 06:21:25;;;;;;;18.55;14.85;;;;;;;18.94;70.65;100176.59;5924043;24;20031;-92
2021/08/30 06:24:29;;;;;;;18.05;15.23;;;;;;;18.91;70.70;100175.03;5959192;24;20034;-91
2021/08/30 06:27:28;;;;;;;18.83;14.27;;;;;;;18.93;70.77;100172.22;5983590;24;20028;-90
2021/08/30 06:30:09;;;;;;;21.65;14.35;;;;;;;18.99;70.17;100174.41;5959797;24;20103;-89
2021/08/30 06:32:36;;;;;;;18.55;15.18;;;;;;;18.99;70.53;100166.38;5958514;24;20092;-90
2021/08/30 06:35:03;;;;;;;18.95;15.48;;;;;;;18.99;70.32;100171.72;5958762;24;20020;-87
2021/08/30 06:37:32;;;;;;;21.35;15.38;;;;;;;19.00;70.38;100170.75;5982862;23;20024;-91
2021/08/30 06:40:05;;;;;;;18.58;14.77;;;;;;;18.99;70.58;100164.53;5958592;24;20020;-91
2021/08/30 06:42:37;;;;;;;17.17;14.65;;;;;;;19.04;70.38;100165.97;5959396;24;20027;-91
2021/08/30 06:45:08;;;;;;;17.83;13.98;;;;;;;19.05;70.56;100168.53;5982960;23;20273;-91
2021/08/30 06:47:43;;;;;;;17.92;15.00;;;;;;;19.06;70.72;100175.56;5959235;24;20532;-92
2021/08/30 06:50:26;;;;;;;19.10;15.63;;;;;;;19.08;70.44;100160.28;5958811;24;20020;-90
2021/08/30 06:52:57;;;;;;;20.52;14.75;;;;;;;19.12;70.59;100168.84;5958294;24;20453;-91
2021/08/30 06:55:26;;;;;;;16.90;14.50;;;;;;;19.14;70.51;100173.09;5982846;23;20039;-91
2021/08/30 06:57:52;;;;;;;21.35;15.48;;;;;;;19.14;70.41;100175.75;5958546;24;20365;-92
2021/08/30 07:00:19;;;;;;;19.15;15.65;;;;;;;19.17;70.65;100179.16;5983167;23;20020;-91
2021/08/30 07:02:46;;;;;;;18.83;14.40;;;;;;;19.17;70.46;100179.97;5957651;24;20056;-91
2021/08/30 07:05:13;;;;;;;20.40;15.27;;;;;;;19.18;70.33;100180.81;5958047;24;20032;-91
2021/08/30 07:07:40;;;;;;;17.88;15.50;;;;;;;19.20;70.45;100170.84;5958369;24;20034;-92
2021/08/30 07:10:08;;;;;;;20.70;16.08;;;;;;;19.20;70.46;100179.72;5958583;24;20107;-89
2021/08/30 07:12:35;;;;;;;18.80;15.57;;;;;;;19.22;70.24;100180.41;5957718;24;20042;-90
2021/08/30 07:15:02;;;;;;;21.42;15.60;;;;;;;19.23;70.28;100183.94;5958095;24;20465;-92
2021/08/30 07:17:29;;;;;;;18.95;15.55;;;;;;;19.23;70.47;100184.78;5958075;24;20062;-90
2021/08/30 07:19:56;;;;;;;22.17;15.75;;;;;;;19.24;70.24;100178.47;5958433;24;20525;-89
2021/08/30 07:22:31;;;;;;;16.95;15.10;;;;;;;19.24;70.18;100175.81;5982517;24;20468;-91
2021/08/30 07:25:04;;;;;;;19.13;15.43;;;;;;;19.24;70.25;100174.94;5958569;24;20472;-91
2021/08/30 07:27:31;;;;;;;19.50;15.73;;;;;;;19.26;70.21;100175.66;5957719;24;20484;-89
2021/08/30 07:29:58;;;;;;;18.58;16.45;;;;;;;19.26;70.53;100181.84;5982829;24;20062;-91
2021/08/30 07:32:25;;;;;;;19.02;14.80;;;;;;;19.26;70.02;100176.50;5982623;23;20020;-89
2021/08/30 07:34:52;;;;;;;24.70;16.88;;;;;;;19.29;70.30;100180.75;5982654;23;20020;-91
2021/08/30 07:37:18;;;;;;;18.85;16.48;;;;;;;19.28;70.18;100179.03;5958104;24;20375;-91
2021/08/30 07:39:48;;;;;;;22.73;16.60;;;;;;;19.27;70.17;100188.03;5957348;24;20476;-92
2021/08/30 07:42:15;;;;;;;22.40;16.02;;;;;;;19.29;70.38;100183.41;5958595;24;20024;-89
2021/08/30 07:44:42;;;;;;;20.02;16.70;;;;;;;19.29;70.13;100186.09;5957225;24;20030;-88
2021/08/30 07:47:09;;;;;;;19.42;16.13;;;;;;;19.30;70.41;100187.78;5957774;24;20469;-91
2021/08/30 07:49:36;;;;;;;22.15;15.82;;;;;;;19.30;70.43;100192.25;5957922;24;20024;-91
2021/08/30 07:52:03;;;;;;;20.00;15.45;;;;;;;19.31;70.45;100189.44;5957568;24;20341;-89
2021/08/30 07:54:30;;;;;;;17.55;15.13;;;;;;;19.31;70.34;100199.28;5984414;24;20020;-90
2021/08/30 07:57:00;;;;;;;17.55;15.07;;;;;;;19.32;70.41;100217.81;5959754;24;20479;-91
2021/08/30 07:59:28;;;;;;;17.00;15.07;;;;;;;19.33;70.35;100213.34;5984149;24;20088;-89
2021/08/30 08:01:57;;;;;;;17.58;14.77;;;;;;;19.35;70.30;100214.03;5962183;24;20031;-91
2021/08/30 08:04:32;;;;;;;18.20;14.63;;;;;;;19.36;70.36;100208.56;5961202;24;20107;-89
2021/08/30 08:06:59;;;;;;;18.75;14.68;;;;;;;19.39;70.47;100212.78;5961353;24;20036;-88
2021/08/30 08:09:25;;;;;;;17.48;15.55;;;;;;;19.39;70.29;100211.00;5959652;24;20031;-89
2021/08/30 08:11:52;;;;;;;20.92;15.02;;;;;;;19.40;70.21;100222.53;5959813;24;20028;-90
2021/08/30 08:14:22;;;;;;;18.80;15.52;;;;;;;19.42;70.45;100215.22;5960675;24;20028;-91
2021/08/30 08:16:49;;;;;;;17.52;14.63;;;;;;;19.46;70.63;100221.13;5984773;23;20024;-90
2021/08/30 08:19:21;;;;;;;18.05;14.75;;;;;;;19.46;70.59;100223.78;5960689;24;20083;-90
2021/08/30 08:21:48;;;;;;;18.93;15.13;;;;;;;19.51;70.60;100218.91;5960231;24;20028;-90
2021/08/30 08:24:14;;;;;;;17.95;14.68;;;;;;;19.52;70.52;100218.75;5959985;24;20020;-88
2021/08/30 08:26:41;;;;;;;17.98;15.07;;;;;;;19.56;70.67;100219.34;5960783;24;20030;-90
2021/08/30 08:29:08;;;;;;;19.05;15.02;;;;;;;19.59;70.55;100224.41;5959221;24;20024;-91
2021/08/30 08:31:35;;;;;;;20.00;14.85;;;;;;;19.63;70.52;100225.81;5959199;24;20020;-91
2021/08/30 08:34:02;;;;;;;24.00;15.00;;;;;;;19.67;70.50;100221.91;5959080;24;20031;-91
2021/08/30 08:36:29;;;;;;;20.17;14.27;;;;;;;19.72;70.61;100223.31;5959104;24;20016;-89
2021/08/30 08:39:04;;;;;;;18.17;14.88;;;;;;;19.75;70.33;100226.59;5958900;24;20028;-89
2021/08/30 08:41:39;;;;;;;18.52;14.10;;;;;;;19.83;70.62;100223.22;5983821;24;20449;-90
2021/08/30 08:44:07;;;;;;;18.88;14.60;;;;;;;19.88;70.24;100222.78;5959135;24;20039;-90
2021/08/30 08:46:37;;;;;;;15.63;13.90;;;;;;;19.92;70.40;100219.72;5958514;24;20020;-90
2021/08/30 08:49:05;;;;;;;16.15;14.05;;;;;;;19.98;70.63;100226.38;5959476;24;20035;-91
2021/08/30 08:51:33;;;;;;;16.02;14.27;;;;;;;20.05;70.42;100224.00;5958930;24;20024;-86
2021/08/30 08:54:00;;;;;;;16.10;13.55;;;;;;;20.13;70.50;100220.63;5953582;24;20021;-90
2021/08/30 08:56:28;;;;;;;16.85;13.40;;;;;;;20.21;70.50;100222.59;5955566;23;20017;-88
2021/08/30 08:58:56;;;;;;;17.42;14.45;;;;;;;20.26;70.26;100218.53;5954432;24;20485;-87
2021/08/30 09:01:31;;;;;;;16.42;13.52;;;;;;;20.33;70.24;100218.81;5955866;24;20039;-90
2021/08/30 09:03:58;;;;;;;17.90;13.18;;;;;;;20.45;70.33;100222.22;5954802;24;20028;-91
2021/08/30 09:06:25;;;;;;;19.10;13.98;;;;;;;20.53;70.18;100216.16;5955548;24;20028;-89
2021/08/30 09:08:57;;;;;;;16.88;13.07;;;;;;;20.62;70.39;100226.00;5954960;24;20029;-88
2021/08/30 09:11:32;;;;;;;14.68;13.07;;;;;;;20.72;69.92;100217.13;5955002;24;20330;-89
2021/08/30 09:13:59;;;;;;;16.60;13.05;;;;;;;20.86;69.90;100216.66;5954746;24;20033;-91
2021/08/30 09:16:26;;;;;;;14.88;12.80;;;;;;;20.94;69.65;100211.47;5956496;24;20024;-92
2021/08/30 09:19:08;;;;;;;13.88;12.23;;;;;;;20.99;69.32;100216.41;5954703;24;20342;-91
2021/08/30 09:21:39;;;;;;;14.80;13.20;;;;;;;21.14;69.49;100218.59;5956595;24;20036;-87
2021/08/30 09:24:14;;;;;;;14.63;12.68;;;;;;;21.21;68.86;100215.22;5954817;24;20033;-89
2021/08/30 09:26:49;;;;;;;14.45;12.70;;;;;;;21.35;69.45;100216.56;5955863;24;20025;-90
2021/08/30 09:29:29;;;;;;;13.88;12.13;;;;;;;21.46;68.99;100220.88;5954960;24;20025;-89
2021/08/30 09:32:08;;;;;;;16.08;12.45;;;;;;;21.60;68.24;100216.03;5956661;24;20052;-89
2021/08/30 09:34:47;;;;;;;15.15;12.63;;;;;;;21.73;67.69;100213.06;5955262;24;20457;-88
2021/08/30 09:37:23;;;;;;;16.13;12.38;;;;;;;21.83;67.16;100223.72;5955857;24;20036;-88
2021/08/30 09:39:55;;;;;;;13.77;11.32;;;;;;;21.89;67.10;100215.06;5955989;23;20031;-91
2021/08/30 09:42:23;;;;;;;14.30;11.65;;;;;;;21.96;67.35;100224.22;5955639;24;20028;-87
2021/08/30 09:44:50;;;;;;;18.20;12.20;;;;;;;22.01;67.34;100221.06;5955227;24;20025;-89
2021/08/30 09:47:22;;;;;;;14.23;12.43;;;;;;;22.05;67.31;100217.06;5954669;24;20029;-91
2021/08/30 09:49:51;;;;;;;14.57;10.98;;;;;;;22.11;66.94;100211.13;5955611;24;20032;-89
2021/08/30 09:52:19;;;;;;;13.48;11.10;;;;;;;22.18;67.12;100215.88;5960063;24;20021;-90
2021/08/30 09:54:46;;;;;;;12.90;10.93;;;;;;;22.24;66.90;100209.91;5959434;24;20024;-89
2021/08/30 09:57:14;;;;;;;12.93;11.25;;;;;;;22.30;66.68;100197.69;5983770;24;20028;-89
2021/08/30 09:59:45;;;;;;;12.20;10.85;;;;;;;22.35;66.24;100200.78;5959760;24;20035;-88
2021/08/30 10:02:14;;;;;;;12.88;10.85;;;;;;;22.44;66.63;100199.00;5984198;24;20040;-87
2021/08/30 10:04:41;;;;;;;11.80;9.48;;;;;;;22.52;66.91;100197.25;5937910;24;20028;-92
2021/08/30 10:07:10;;;;;;;12.95;9.95;;;;;;;22.61;66.51;100189.31;5961247;24;20305;-90
2021/08/30 10:09:41;;;;;;;12.65;10.23;;;;;;;22.70;66.13;100203.59;5963038;24;20025;-92
2021/08/30 10:12:08;;;;;;;19.52;10.55;;;;;;;22.81;65.77;100194.47;5961663;24;20032;-91
2021/08/30 10:14:35;;;;;;;12.75;10.25;;;;;;;22.90;65.56;100198.88;5986652;23;20024;-92
2021/08/30 10:17:04;;;;;;;12.40;9.65;;;;;;;23.00;66.08;100196.09;5964007;24;20024;-91
2021/08/30 10:19:36;;;;;;;12.85;9.02;;;;;;;23.11;65.37;100189.63;5963970;24;20024;-91
2021/08/30 10:22:18;;;;;;;11.98;8.40;;;;;;;23.23;65.25;100191.03;5963794;24;20032;-92
2021/08/30 10:24:46;;;;;;;10.45;9.02;;;;;;;23.39;65.09;100195.66;5960805;24;20097;-92
2021/08/30 10:27:14;;;;;;;13.77;8.77;;;;;;;23.52;64.88;100191.69;5987885;23;20024;-90
2021/08/30 10:29:43;;;;;;;10.32;8.27;;;;;;;23.64;65.12;100184.16;5986354;24;20039;-92
2021/08/30 10:32:25;;;;;;;10.95;9.15;;;;;;;23.72;63.43;100192.25;5961670;24;20103;-90
2021/08/30 10:34:55;;;;;;;10.43;8.98;;;;;;;23.85;63.21;100190.94;5986322;24;20039;-92
2021/08/30 10:37:22;;;;;;;14.38;9.00;;;;;;;23.94;64.13;100193.50;5986191;24;20024;-92
2021/08/30 10:39:53;;;;;;;8.98;8.07;;;;;;;24.01;62.75;100200.91;5961485;24;20026;-92
2021/08/30 10:42:21;;;;;;;8.88;7.97;;;;;;;24.08;63.24;100197.38;5962050;24;20456;-91
2021/08/30 10:44:57;;;;;;;11.70;8.65;;;;;;;24.12;61.38;100197.94;5960009;24;20024;-91
2021/08/30 10:47:34;;;;;;;9.32;8.25;;;;;;;24.14;60.78;100205.84;5959864;24;20082;-90
2021/08/30 10:50:03;;;;;;;12.02;7.90;;;;;;;24.18;60.94;100204.50;5984236;24;20024;-90
2021/08/30 10:52:39;;;;;;;11.90;8.57;;;;;;;24.12;60.56;100202.47;5984826;23;20028;-92
2021/08/30 10:55:19;;;;;;;13.50;8.15;;;;;;;24.10;61.70;100199.06;5938030;24;20035;-90
2021/08/30 10:57:52;;;;;;;11.32;8.05;;;;;;;24.13;61.20;100196.06;5960387;24;20031;-92
2021/08/30 11:00:30;;;;;;;8.90;8.00;;;;;;;24.18;60.69;100201.81;5960577;24;20348;-93
2021/08/30 11:02:59;;;;;;;8.30;7.40;;;;;;;24.27;61.81;100198.13;5959409;24;20249;-90
2021/08/30 11:05:30;;;;;;;10.45;8.05;;;;;;;24.36;60.46;100200.81;5960081;24;20028;-91
2021/08/30 11:07:57;;;;;;;11.18;7.80;;;;;;;24.53;61.45;100198.97;5983954;23;20020;-90
2021/08/30 11:10:28;;;;;;;9.32;7.35;;;;;;;24.71;62.54;100196.09;5959846;24;20034;-91
2021/08/30 11:12:56;;;;;;;9.27;7.30;;;;;;;24.96;61.56;100198.75;5959581;24;20031;-88
2021/08/30 11:15:32;;;;;;;7.50;6.78;;;;;;;25.29;60.48;100208.59;5959798;24;20016;-90
2021/08/30 11:18:00;;;;;;;8.45;7.10;;;;;;;25.69;60.56;100193.34;5959483;24;20032;-91
2021/08/30 11:20:27;;;;;;;6.93;6.22;;;;;;;26.01;58.95;100196.84;5984440;24;20044;-92
2021/08/30 11:22:55;;;;;;;7.72;6.57;;;;;;;26.30;58.91;100194.47;5983438;23;20031;-88
2021/08/30 11:25:22;;;;;;;6.35;5.63;;;;;;;26.57;58.54;100197.63;5959662;24;20057;-89
2021/08/30 11:27:49;;;;;;;6.10;5.55;;;;;;;26.81;56.45;100193.03;5959627;24;20067;-88
2021/08/30 11:30:18;;;;;;;6.13;5.53;;;;;;;26.92;53.85;100194.44;5959168;24;20043;-87
2021/08/30 11:32:51;;;;;;;10.98;6.68;;;;;;;26.90;52.39;100185.66;5959107;24;20035;-89
2021/08/30 11:35:22;;;;;;;7.82;5.82;;;;;;;26.87;53.28;100192.28;5982795;23;20026;-89
2021/08/30 11:37:48;;;;;;;6.32;5.72;;;;;;;26.85;53.90;100201.59;5959480;24;20352;-91
2021/08/30 11:40:15;;;;;;;8.70;6.03;;;;;;;26.77;53.03;100194.41;5983950;24;20028;-89
2021/08/30 11:42:43;;;;;;;5.80;5.18;;;;;;;26.63;52.86;100188.81;5983183;24;20031;-85
2021/08/30 11:45:12;;;;;;;6.80;5.63;;;;;;;26.48;52.11;100204.13;5983225;23;20032;-87
2021/08/30 11:47:38;;;;;;;5.85;5.18;;;;;;;26.32;51.90;100199.69;5982958;24;20468;-85
2021/08/30 11:50:10;;;;;;;5.57;4.90;;;;;;;26.10;51.46;100202.19;5958428;24;20028;-89
2021/08/30 11:52:39;;;;;;;6.18;4.85;;;;;;;25.93;52.39;100204.16;5953260;24;20024;-88
2021/08/30 11:55:18;;;;;;;6.80;5.50;;;;;;;25.70;51.59;100203.09;5954972;24;20029;-89
2021/08/30 11:58:02;;;;;;;6.15;5.28;;;;;;;25.48;52.64;100207.38;5954035;24;20032;-88
2021/08/30 12:00:30;;;;;;;5.93;4.90;;;;;;;25.34;52.67;100204.38;5953682;24;20035;-89